Impacts METAR Board INFO
IDs:

KJFK - New York/Kennedy Int, NY, US

Updated at: 0453 UTC 18 Dec 2017
Potential Impact None Slight Moderate High
Time17/16Z 17/17Z 17/18Z 17/19Z 17/20Z 17/21Z 17/22Z 17/23Z 18/00Z 18/01Z 18/02Z 18/03Z 18/04Z
VIS10 10 10 10 10 10 10 10 10 10 10 10 10
CIG48 48 48 230 210 250 200 130 22 21 21 20 120
CoverOVCOVCBKNBKNBKNBKNBKNBKNOVCBKNBKNOVCOVC
FltCatVFRVFRVFRVFRVFRVFRVFRVFRMVFRMVFRMVFRMVFRVFR
WX--------------------------
WDir5000001301001007080607080
WSpd5 0 0 0 0 5 6 3 4 5 6 6 5
WGst-- -- -- -- -- -- -- -- -- -- -- -- --
Raw hourly METARs
KJFK 171551Z 05005KT 10SM OVC048 01/M05 A3030 RMK AO2 SLP259 T00111050
KJFK 171651Z 00000KT 10SM BKN048 OVC100 01/M05 A3030 RMK AO2 SLP258 T00111050
KJFK 171751Z 00000KT 10SM BKN048 BKN100 02/M04 A3027 RMK AO2 SLP249 T00221044 10028 20000 58017
KJFK 171851Z 00000KT 10SM FEW049 FEW100 BKN230 02/M04 A3025 RMK AO2 SLP244 T00221044
KJFK 171951Z 00000KT 10SM FEW100 BKN210 03/M04 A3025 RMK AO2 SLP242 T00281039
KJFK 172051Z 13005KT 10SM FEW045 SCT150 BKN250 02/M03 A3026 RMK AO2 SLP245 T00221033 55004
KJFK 172151Z 10006KT 10SM FEW150 BKN200 BKN250 01/M03 A3026 RMK AO2 SLP245 T00111033
KJFK 172251Z 10003KT 10SM BKN130 BKN250 01/M03 A3027 RMK AO2 SLP248 T00111033
KJFK 172351Z 07004KT 10SM BKN022 OVC130 01/M03 A3029 RMK AO2 SLP255 T00111033 10028 20011 53010
KJFK 180051Z 08005KT 10SM BKN021 01/M03 A3028 RMK AO2 SLP253 T00111033
KJFK 180151Z 06006KT 10SM BKN021 BKN140 01/M04 A3026 RMK AO2 SLP247 T00061039
KJFK 180251Z 07006KT 10SM BKN020 OVC130 01/M04 A3025 RMK AO2 SLP244 T00061039 58010
KJFK 180351Z 08005KT 10SM FEW020 SCT065 OVC120 01/M04 A3023 RMK AO2 SLP236 T00061039